createdAt,value
2022-08-21T00:00:19.835Z,48.74
2022-08-21T00:01:19.823Z,49.02
2022-08-21T00:02:19.859Z,48.90
2022-08-21T00:03:19.802Z,48.81
2022-08-21T00:04:22.283Z,48.71
2022-08-21T00:05:19.782Z,48.81
2022-08-21T00:06:19.772Z,48.81
2022-08-21T00:07:19.761Z,48.81
2022-08-21T00:08:19.748Z,48.71
2022-08-21T00:09:19.742Z,48.71
2022-08-21T00:10:19.729Z,48.71
2022-08-21T00:11:19.717Z,48.81
2022-08-21T00:12:19.707Z,48.71
2022-08-21T00:13:19.696Z,48.71
2022-08-21T00:14:19.686Z,48.81
2022-08-21T00:15:19.674Z,48.83
2022-08-21T00:16:19.666Z,48.71
2022-08-21T00:17:19.655Z,48.71
2022-08-21T00:18:19.643Z,48.81
2022-08-21T00:19:19.633Z,49.00
2022-08-21T00:20:19.623Z,48.71
2022-08-21T00:21:19.612Z,48.83
2022-08-21T00:22:19.602Z,48.81
2022-08-21T00:23:19.590Z,48.90
2022-08-21T00:24:19.580Z,48.81
2022-08-21T00:25:19.787Z,48.71
2022-08-21T00:26:19.560Z,48.71
2022-08-21T00:27:19.547Z,48.83
2022-08-21T00:28:19.538Z,48.81
2022-08-21T00:29:19.527Z,48.71
2022-08-21T00:30:22.988Z,49.00
2022-08-21T00:31:19.505Z,48.81
2022-08-21T00:32:19.495Z,48.90
2022-08-21T00:33:19.487Z,48.71
2022-08-21T00:34:19.473Z,48.74
2022-08-21T00:35:19.466Z,48.83
2022-08-21T00:36:19.453Z,48.71
2022-08-21T00:37:19.443Z,48.81
2022-08-21T00:38:19.433Z,48.71
2022-08-21T00:39:19.421Z,48.74
2022-08-21T00:40:19.477Z,48.71
2022-08-21T00:41:38.061Z,48.93
2022-08-21T00:42:19.390Z,48.64
2022-08-21T00:43:19.379Z,48.61
2022-08-21T00:44:19.367Z,48.81
2022-08-21T00:45:19.359Z,49.00
2022-08-21T00:46:19.349Z,48.83
2022-08-21T00:47:19.335Z,49.00
2022-08-21T00:48:19.326Z,49.00
2022-08-21T00:49:19.315Z,48.90
2022-08-21T00:50:19.654Z,48.81
2022-08-21T00:51:19.295Z,48.81
2022-08-21T00:52:19.283Z,49.00
2022-08-21T00:53:19.274Z,48.81
2022-08-21T00:54:19.467Z,49.00
2022-08-21T00:55:19.254Z,48.71
2022-08-21T00:56:19.242Z,49.00
2022-08-21T00:57:19.230Z,48.81
2022-08-21T00:58:19.221Z,48.71
2022-08-21T00:59:19.209Z,48.83
2022-08-21T01:00:19.199Z,48.71
2022-08-21T01:01:19.220Z,48.61
2022-08-21T01:02:19.179Z,48.71
2022-08-21T01:03:19.168Z,49.02
2022-08-21T01:04:19.156Z,48.71
2022-08-21T01:05:19.146Z,48.71
2022-08-21T01:06:19.135Z,48.71
2022-08-21T01:07:19.129Z,49.00
2022-08-21T01:08:19.115Z,48.71
2022-08-21T01:09:19.105Z,48.71
2022-08-21T01:10:24.401Z,48.71
2022-08-21T01:11:19.081Z,49.00
2022-08-21T01:12:19.072Z,48.81
2022-08-21T01:13:19.062Z,48.71
2022-08-21T01:14:19.052Z,48.71
2022-08-21T01:15:19.040Z,48.71
2022-08-21T01:16:19.028Z,48.71
2022-08-21T01:17:19.020Z,48.71
2022-08-21T01:18:19.010Z,48.71
2022-08-21T01:19:18.998Z,48.71
2022-08-21T01:20:18.987Z,48.90
2022-08-21T01:21:18.979Z,48.81
2022-08-21T01:22:18.967Z,48.81
2022-08-21T01:23:18.955Z,48.81
2022-08-21T01:24:18.946Z,48.90
2022-08-21T01:25:18.936Z,48.71
2022-08-21T01:26:18.926Z,48.90
2022-08-21T01:27:18.920Z,48.71
2022-08-21T01:28:18.903Z,48.71
2022-08-21T01:29:18.893Z,48.71
2022-08-21T01:30:18.882Z,49.00
2022-08-21T01:31:18.870Z,48.71
2022-08-21T01:32:18.860Z,48.71
2022-08-21T01:33:18.851Z,48.81
2022-08-21T01:34:18.841Z,48.71
2022-08-21T01:35:18.834Z,48.90
2022-08-21T01:36:18.820Z,48.71
2022-08-21T01:37:18.809Z,48.61
2022-08-21T01:38:18.800Z,48.81
2022-08-21T01:39:18.787Z,48.71
2022-08-21T01:40:18.869Z,48.71
2022-08-21T01:41:18.765Z,48.71
2022-08-21T01:42:18.755Z,48.81
2022-08-21T01:43:18.746Z,48.81
2022-08-21T01:44:18.734Z,48.71
2022-08-21T01:45:18.723Z,48.71
2022-08-21T01:46:18.715Z,48.71
2022-08-21T01:47:18.707Z,48.61
2022-08-21T01:48:18.692Z,48.71
2022-08-21T01:49:18.682Z,48.81
2022-08-21T01:50:18.670Z,48.81
2022-08-21T01:51:18.659Z,48.61
2022-08-21T01:52:18.649Z,49.00
2022-08-21T01:53:18.639Z,49.00
2022-08-21T01:54:18.630Z,48.74
2022-08-21T01:55:18.619Z,49.00
2022-08-21T01:56:18.607Z,48.52
2022-08-21T01:57:18.598Z,48.81
2022-08-21T01:58:18.593Z,48.71
2022-08-21T01:59:18.577Z,48.83
2022-08-21T02:00:18.566Z,48.61
2022-08-21T02:01:18.629Z,49.00
2022-08-21T02:02:18.543Z,48.71
2022-08-21T02:03:26.412Z,49.00
2022-08-21T02:04:18.530Z,48.71
2022-08-21T02:05:18.512Z,48.74
2022-08-21T02:06:18.531Z,48.81
2022-08-21T02:07:18.490Z,48.71
2022-08-21T02:08:18.481Z,48.90
2022-08-21T02:09:18.471Z,48.81
2022-08-21T02:10:18.460Z,48.71
2022-08-21T02:11:18.448Z,48.81
2022-08-21T02:12:18.438Z,48.90
2022-08-21T02:13:18.428Z,48.90
2022-08-21T02:14:32.288Z,48.61
2022-08-21T02:15:18.407Z,48.61
2022-08-21T02:16:19.509Z,48.71
2022-08-21T02:17:18.388Z,48.81
2022-08-21T02:18:18.376Z,48.71
2022-08-21T02:19:18.365Z,48.71
2022-08-21T02:20:18.353Z,48.64
2022-08-21T02:21:18.346Z,48.64
2022-08-21T02:22:18.333Z,48.74
2022-08-21T02:23:18.322Z,48.61
2022-08-21T02:24:18.310Z,48.71
2022-08-21T02:25:18.300Z,48.83
2022-08-21T02:26:18.291Z,48.71
2022-08-21T02:27:18.300Z,48.74
2022-08-21T02:28:18.271Z,48.61
2022-08-21T02:29:18.259Z,48.61
2022-08-21T02:30:18.248Z,48.44
2022-08-21T02:31:18.237Z,48.61
2022-08-21T02:32:18.226Z,48.43
2022-08-21T02:33:18.226Z,48.61
2022-08-21T02:34:18.205Z,48.61
2022-08-21T02:35:18.203Z,48.25
2022-08-21T02:36:18.184Z,48.61
2022-08-21T02:37:18.173Z,48.81
2022-08-21T02:38:18.166Z,48.44
2022-08-21T02:39:18.152Z,48.43
2022-08-21T02:40:18.195Z,48.71
2022-08-21T02:41:18.131Z,48.83
2022-08-21T02:42:18.120Z,48.64
2022-08-21T02:43:18.109Z,48.83
2022-08-21T02:44:18.098Z,48.81
2022-08-21T02:45:18.090Z,48.74
2022-08-21T02:46:18.079Z,48.54
2022-08-21T02:47:18.066Z,48.74
2022-08-21T02:48:18.061Z,48.71
2022-08-21T02:49:18.047Z,48.74
2022-08-21T02:50:18.036Z,48.61
2022-08-21T02:51:18.028Z,48.35
2022-08-21T02:52:18.019Z,48.64
2022-08-21T02:53:18.004Z,48.74
2022-08-21T02:54:17.996Z,48.44
2022-08-21T02:55:17.986Z,48.44
2022-08-21T02:56:17.973Z,48.44
2022-08-21T02:57:18.026Z,48.44
2022-08-21T02:58:17.955Z,48.74
2022-08-21T02:59:17.941Z,48.35
2022-08-21T03:00:17.930Z,48.44
2022-08-21T03:01:17.948Z,48.93
2022-08-21T03:02:17.910Z,48.64
2022-08-21T03:03:17.899Z,48.44
2022-08-21T03:04:17.888Z,48.61
2022-08-21T03:05:17.881Z,48.64
2022-08-21T03:06:17.866Z,48.74
2022-08-21T03:07:17.856Z,48.35
2022-08-21T03:08:17.847Z,48.44
2022-08-21T03:09:17.834Z,48.93
2022-08-21T03:10:17.824Z,48.64
2022-08-21T03:11:17.814Z,48.25
2022-08-21T03:12:17.805Z,48.93
2022-08-21T03:13:17.793Z,48.71
2022-08-21T03:14:17.782Z,48.83
2022-08-21T03:15:17.771Z,48.44
2022-08-21T03:16:17.760Z,48.74
2022-08-21T03:17:17.751Z,48.74
2022-08-21T03:18:17.742Z,48.74
2022-08-21T03:19:17.728Z,48.64
2022-08-21T03:20:17.719Z,48.54
2022-08-21T03:21:17.708Z,48.74
2022-08-21T03:22:17.697Z,48.64
2022-08-21T03:23:19.029Z,48.64
2022-08-21T03:24:17.691Z,48.35
2022-08-21T03:25:17.666Z,48.35
2022-08-21T03:26:17.655Z,48.44
2022-08-21T03:27:17.644Z,48.74
2022-08-21T03:28:17.636Z,48.35
2022-08-21T03:29:17.624Z,48.25
2022-08-21T03:30:17.613Z,48.54
2022-08-21T03:31:17.601Z,48.44
2022-08-21T03:32:17.593Z,48.44
2022-08-21T03:33:17.581Z,48.54
2022-08-21T03:34:17.571Z,48.44
2022-08-21T03:35:17.561Z,48.44
2022-08-21T03:36:17.551Z,48.44
2022-08-21T03:37:17.541Z,48.35
2022-08-21T03:38:17.530Z,48.54
2022-08-21T03:39:17.518Z,48.35
2022-08-21T03:40:17.560Z,48.74
2022-08-21T03:41:17.496Z,48.54
2022-08-21T03:42:17.490Z,48.35
2022-08-21T03:43:17.475Z,48.71
2022-08-21T03:44:17.466Z,48.74
2022-08-21T03:45:17.456Z,48.35
2022-08-21T03:46:17.444Z,48.44
2022-08-21T03:47:17.433Z,48.35
2022-08-21T03:48:17.426Z,48.35
2022-08-21T03:49:17.413Z,48.35
2022-08-21T03:50:17.404Z,48.35
2022-08-21T03:51:17.391Z,48.35
2022-08-21T03:52:17.379Z,48.54
2022-08-21T03:53:18.111Z,48.54
2022-08-21T03:54:17.360Z,48.44
2022-08-21T03:55:17.349Z,48.35
2022-08-21T03:56:17.349Z,48.35
2022-08-21T03:57:17.330Z,48.35
2022-08-21T03:58:17.851Z,48.74
2022-08-21T03:59:17.959Z,48.61
2022-08-21T04:00:17.297Z,48.54
2022-08-21T04:01:17.373Z,48.64
2022-08-21T04:02:17.279Z,48.35
2022-08-21T04:03:17.269Z,48.25
2022-08-21T04:04:17.254Z,48.64
2022-08-21T04:05:17.267Z,48.64
2022-08-21T04:06:17.240Z,48.64
2022-08-21T04:07:17.227Z,48.54
2022-08-21T04:08:17.218Z,48.54
2022-08-21T04:09:17.206Z,48.54
2022-08-21T04:10:17.197Z,48.44
2022-08-21T04:11:17.183Z,48.35
2022-08-21T04:12:17.170Z,48.54
2022-08-21T04:13:17.158Z,48.54
2022-08-21T04:14:17.151Z,48.44
2022-08-21T04:15:17.139Z,48.44
2022-08-21T04:16:17.128Z,48.44
2022-08-21T04:17:17.124Z,48.43
2022-08-21T04:18:17.123Z,48.44
2022-08-21T04:19:17.097Z,48.64
2022-08-21T04:20:17.086Z,48.44
2022-08-21T04:21:17.075Z,48.44
2022-08-21T04:22:17.065Z,48.74
2022-08-21T04:23:23.663Z,48.74
2022-08-21T04:24:17.049Z,48.44
2022-08-21T04:25:17.033Z,48.64
2022-08-21T04:26:17.026Z,48.44
2022-08-21T04:27:17.012Z,48.54
2022-08-21T04:28:17.002Z,48.44
2022-08-21T04:29:16.990Z,48.61
2022-08-21T04:30:16.981Z,48.54
2022-08-21T04:31:16.970Z,48.54
2022-08-21T04:32:16.960Z,48.54
2022-08-21T04:33:16.950Z,48.74
2022-08-21T04:34:16.938Z,48.64
2022-08-21T04:35:16.927Z,48.64
2022-08-21T04:36:16.919Z,48.74
2022-08-21T04:37:16.906Z,48.25
2022-08-21T04:38:16.896Z,48.54
2022-08-21T04:39:16.886Z,48.64
2022-08-21T04:40:16.954Z,48.25
2022-08-21T04:41:16.863Z,48.54
2022-08-21T04:42:16.854Z,48.64
2022-08-21T04:43:16.845Z,48.74
2022-08-21T04:44:16.835Z,48.54
2022-08-21T04:45:16.822Z,48.54
2022-08-21T04:46:16.814Z,48.74
2022-08-21T04:47:16.801Z,48.64
2022-08-21T04:48:16.789Z,48.64
2022-08-21T04:49:16.779Z,48.64
2022-08-21T04:50:16.771Z,48.64
2022-08-21T04:51:16.758Z,48.64
2022-08-21T04:52:16.747Z,48.74
2022-08-21T04:53:16.740Z,48.71
2022-08-21T04:54:17.495Z,48.74
2022-08-21T04:55:16.717Z,48.61
2022-08-21T04:56:16.707Z,48.74
2022-08-21T04:57:16.697Z,48.74
2022-08-21T04:58:16.686Z,48.64
2022-08-21T04:59:16.674Z,48.83
2022-08-21T05:00:16.665Z,48.74
2022-08-21T05:01:16.684Z,48.74
2022-08-21T05:02:16.650Z,48.64
2022-08-21T05:03:16.632Z,48.74
2022-08-21T05:04:16.622Z,48.83
2022-08-21T05:05:16.615Z,48.83
2022-08-21T05:06:16.614Z,48.74
2022-08-21T05:07:16.591Z,48.83
2022-08-21T05:08:16.578Z,48.81
2022-08-21T05:09:16.570Z,48.74
2022-08-21T05:10:16.561Z,48.83
2022-08-21T05:11:16.549Z,48.74
2022-08-21T05:12:16.537Z,48.83
2022-08-21T05:13:16.529Z,48.74
2022-08-21T05:14:16.517Z,48.83
2022-08-21T05:15:16.506Z,48.83
2022-08-21T05:16:16.496Z,48.83
2022-08-21T05:17:16.487Z,48.83
2022-08-21T05:18:16.474Z,48.44
2022-08-21T05:19:16.466Z,48.54
2022-08-21T05:20:16.455Z,48.54
2022-08-21T05:21:16.443Z,48.74
2022-08-21T05:22:16.433Z,48.74
2022-08-21T05:23:16.423Z,48.93
2022-08-21T05:24:16.409Z,48.93
2022-08-21T05:25:16.401Z,48.44
2022-08-21T05:26:18.627Z,48.54
2022-08-21T05:27:17.755Z,48.93
2022-08-21T05:28:16.367Z,48.44
2022-08-21T05:29:16.595Z,48.54
2022-08-21T05:30:16.351Z,48.54
2022-08-21T05:31:16.337Z,48.44
2022-08-21T05:32:16.336Z,48.35
2022-08-21T05:33:16.314Z,48.83
2022-08-21T05:34:17.106Z,48.25
2022-08-21T05:35:16.293Z,48.93
2022-08-21T05:36:16.284Z,48.83
2022-08-21T05:37:16.274Z,48.44
2022-08-21T05:38:17.758Z,48.06
2022-08-21T05:39:16.255Z,48.25
2022-08-21T05:40:21.439Z,48.44
2022-08-21T05:41:16.230Z,48.25
2022-08-21T05:42:16.224Z,48.25
2022-08-21T05:43:16.209Z,48.35
2022-08-21T05:44:16.201Z,48.44
2022-08-21T05:45:16.189Z,48.44
2022-08-21T05:46:16.178Z,48.93
2022-08-21T05:47:16.168Z,48.25
2022-08-21T05:48:16.179Z,48.25
2022-08-21T05:49:16.147Z,48.25
2022-08-21T05:50:16.136Z,48.44
2022-08-21T05:51:16.125Z,48.83
2022-08-21T05:52:16.115Z,48.44
2022-08-21T05:53:16.106Z,48.13
2022-08-21T05:54:16.094Z,47.87
2022-08-21T05:55:16.084Z,48.44
2022-08-21T05:56:16.074Z,47.97
2022-08-21T05:57:16.071Z,48.44
2022-08-21T05:58:16.060Z,48.06
2022-08-21T05:59:16.041Z,48.06
2022-08-21T06:00:16.031Z,48.16
2022-08-21T06:01:16.052Z,47.97
2022-08-21T06:02:16.014Z,48.25
2022-08-21T06:03:15.998Z,48.16
2022-08-21T06:04:15.989Z,47.97
2022-08-21T06:05:16.578Z,47.97
2022-08-21T06:06:15.968Z,47.97
2022-08-21T06:07:15.960Z,48.16
2022-08-21T06:08:15.949Z,48.06
2022-08-21T06:09:15.938Z,48.06
2022-08-21T06:10:15.925Z,48.06
2022-08-21T06:11:15.912Z,47.87
2022-08-21T06:12:15.903Z,48.06
2022-08-21T06:13:15.895Z,47.97
2022-08-21T06:14:15.883Z,48.16
2022-08-21T06:15:15.872Z,48.06
2022-08-21T06:16:16.303Z,48.06
2022-08-21T06:17:15.853Z,47.97
2022-08-21T06:18:15.840Z,47.97
2022-08-21T06:19:15.831Z,48.16
2022-08-21T06:20:15.818Z,48.25
2022-08-21T06:21:15.808Z,47.97
2022-08-21T06:22:15.798Z,48.16
2022-08-21T06:23:15.787Z,48.13
2022-08-21T06:24:15.778Z,48.16
2022-08-21T06:25:15.767Z,48.16
2022-08-21T06:26:15.755Z,48.16
2022-08-21T06:27:15.747Z,48.16
2022-08-21T06:28:15.737Z,48.16
2022-08-21T06:29:15.725Z,48.06
2022-08-21T06:30:15.713Z,47.97
2022-08-21T06:31:15.704Z,48.16
2022-08-21T06:32:15.692Z,47.97
2022-08-21T06:33:15.681Z,48.16
2022-08-21T06:34:15.671Z,47.97
2022-08-21T06:35:15.660Z,47.87
2022-08-21T06:36:15.653Z,47.97
2022-08-21T06:37:15.641Z,48.06
2022-08-21T06:38:15.637Z,48.16
2022-08-21T06:39:16.412Z,47.94
2022-08-21T06:40:15.653Z,48.16
2022-08-21T06:41:15.599Z,48.25
2022-08-21T06:42:15.586Z,48.25
2022-08-21T06:43:15.577Z,48.25
2022-08-21T06:44:15.568Z,48.25
2022-08-21T06:45:15.557Z,48.25
2022-08-21T06:46:15.546Z,48.25
2022-08-21T06:47:15.535Z,48.06
2022-08-21T06:48:19.171Z,48.16
2022-08-21T06:49:21.340Z,48.33
2022-08-21T06:50:15.504Z,48.06
2022-08-21T06:51:15.493Z,48.16
2022-08-21T06:52:15.481Z,48.25
2022-08-21T06:53:15.474Z,48.16
2022-08-21T06:54:15.460Z,48.06
2022-08-21T06:55:21.798Z,48.06
2022-08-21T06:56:15.439Z,47.97
2022-08-21T06:57:15.429Z,48.16
2022-08-21T06:58:15.417Z,48.16
2022-08-21T06:59:15.407Z,48.25
2022-08-21T07:00:15.399Z,47.97
2022-08-21T07:01:15.427Z,48.06
2022-08-21T07:02:15.379Z,47.97
2022-08-21T07:03:15.369Z,47.94
2022-08-21T07:04:15.354Z,47.97
2022-08-21T07:05:18.370Z,47.97
2022-08-21T07:06:15.334Z,48.25
2022-08-21T07:07:15.327Z,48.35
2022-08-21T07:08:15.313Z,48.35
2022-08-21T07:09:15.302Z,48.25
2022-08-21T07:10:22.369Z,48.35
2022-08-21T07:11:15.284Z,48.16
2022-08-21T07:12:15.269Z,47.97
2022-08-21T07:13:15.262Z,47.97
2022-08-21T07:14:20.088Z,47.97
2022-08-21T07:15:15.238Z,47.94
2022-08-21T07:16:15.231Z,47.97
2022-08-21T07:17:15.217Z,47.94
2022-08-21T07:18:15.207Z,47.87
2022-08-21T07:19:15.196Z,48.25
2022-08-21T07:20:15.186Z,48.16
2022-08-21T07:21:15.176Z,47.97
2022-08-21T07:22:15.165Z,47.87
2022-08-21T07:23:15.156Z,47.87
2022-08-21T07:24:15.148Z,47.97
2022-08-21T07:25:15.134Z,47.97
2022-08-21T07:26:15.123Z,47.97
2022-08-21T07:27:15.111Z,47.97
2022-08-21T07:28:15.104Z,47.87
2022-08-21T07:29:15.089Z,48.06
2022-08-21T07:30:15.081Z,47.87
2022-08-21T07:31:15.071Z,48.25
2022-08-21T07:32:19.517Z,47.87
2022-08-21T07:33:15.048Z,48.25
2022-08-21T07:34:15.037Z,48.13
2022-08-21T07:35:15.025Z,48.35
2022-08-21T07:36:15.017Z,48.16
2022-08-21T07:37:15.005Z,47.97
2022-08-21T07:38:14.995Z,48.25
2022-08-21T07:39:14.983Z,48.25
2022-08-21T07:40:15.032Z,48.25
2022-08-21T07:41:14.966Z,48.16
2022-08-21T07:42:14.953Z,47.97
2022-08-21T07:43:14.942Z,47.87
2022-08-21T07:44:14.932Z,48.16
2022-08-21T07:45:14.926Z,48.25
2022-08-21T07:46:14.914Z,48.35
2022-08-21T07:47:14.903Z,48.16
2022-08-21T07:48:14.891Z,48.16
2022-08-21T07:49:14.884Z,48.25
2022-08-21T07:50:14.876Z,48.35
2022-08-21T07:51:14.858Z,48.35
2022-08-21T07:52:14.850Z,48.23
2022-08-21T07:53:14.841Z,48.25
2022-08-21T07:54:17.116Z,48.23
2022-08-21T07:55:14.814Z,48.25
2022-08-21T07:56:14.816Z,48.23
2022-08-21T07:57:14.799Z,48.25
2022-08-21T07:58:14.785Z,48.13
2022-08-21T07:59:14.777Z,48.25
2022-08-21T08:00:14.766Z,48.25
2022-08-21T08:01:14.847Z,48.23
2022-08-21T08:02:14.746Z,48.23
2022-08-21T08:03:14.735Z,48.16
2022-08-21T08:04:14.720Z,48.16
2022-08-21T08:05:14.714Z,48.13
2022-08-21T08:06:14.700Z,48.16
2022-08-21T08:07:14.688Z,48.25
2022-08-21T08:08:14.686Z,48.13
2022-08-21T08:09:14.673Z,48.23
2022-08-21T08:10:14.657Z,48.23
2022-08-21T08:11:14.646Z,48.25
2022-08-21T08:12:14.635Z,48.25
2022-08-21T08:13:14.625Z,47.97
2022-08-21T08:14:14.615Z,48.16
2022-08-21T08:15:14.603Z,47.87
2022-08-21T08:16:14.593Z,48.06
2022-08-21T08:17:14.582Z,48.23
2022-08-21T08:18:14.571Z,47.94
2022-08-21T08:19:14.562Z,48.13
2022-08-21T08:20:14.550Z,48.13
2022-08-21T08:21:14.540Z,47.94
2022-08-21T08:22:14.530Z,48.16
2022-08-21T08:23:14.520Z,47.97
2022-08-21T08:24:19.373Z,47.97
2022-08-21T08:25:14.501Z,48.06
2022-08-21T08:26:14.487Z,48.33
2022-08-21T08:27:14.476Z,47.97
2022-08-21T08:28:17.104Z,48.16
2022-08-21T08:29:14.460Z,47.87
2022-08-21T08:30:14.445Z,48.43
2022-08-21T08:31:14.442Z,47.75
2022-08-21T08:32:14.424Z,48.06
2022-08-21T08:33:14.416Z,48.25
2022-08-21T08:34:25.285Z,47.85
2022-08-21T08:35:14.391Z,48.16
2022-08-21T08:36:14.383Z,48.23
2022-08-21T08:37:14.371Z,47.87
2022-08-21T08:38:14.362Z,47.77
2022-08-21T08:39:27.013Z,47.87
2022-08-21T08:40:14.426Z,47.58
2022-08-21T08:41:14.329Z,47.85
2022-08-21T08:42:33.803Z,48.33
2022-08-21T08:43:14.494Z,48.33
2022-08-21T08:44:14.299Z,47.67
2022-08-21T08:45:14.286Z,47.87
2022-08-21T08:46:14.277Z,47.67
2022-08-21T08:47:14.264Z,47.67
2022-08-21T08:48:14.578Z,47.65
2022-08-21T08:49:14.430Z,47.65
2022-08-21T08:50:14.236Z,47.77
2022-08-21T08:51:14.223Z,47.65
2022-08-21T08:52:14.213Z,48.23
2022-08-21T08:53:14.201Z,47.75
2022-08-21T08:54:14.191Z,48.23
2022-08-21T08:55:14.181Z,48.16
2022-08-21T08:56:14.170Z,47.65
2022-08-21T08:57:14.160Z,48.25
2022-08-21T08:58:14.151Z,47.67
2022-08-21T08:59:14.138Z,47.85
2022-08-21T09:00:14.129Z,48.25
2022-08-21T09:01:14.185Z,48.35
2022-08-21T09:02:14.110Z,48.23
2022-08-21T09:03:14.095Z,47.65
2022-08-21T09:04:14.086Z,47.85
2022-08-21T09:05:14.078Z,47.77
2022-08-21T09:06:14.067Z,47.94
2022-08-21T09:07:14.058Z,48.03
2022-08-21T09:08:18.525Z,47.94
2022-08-21T09:09:14.036Z,47.87
2022-08-21T09:10:14.026Z,47.87
2022-08-21T09:11:14.011Z,47.56
2022-08-21T09:12:14.003Z,48.06
2022-08-21T09:13:13.989Z,47.58
2022-08-21T09:14:13.980Z,47.56
2022-08-21T09:15:13.969Z,47.97
2022-08-21T09:16:13.958Z,47.85
2022-08-21T09:17:13.979Z,48.03
2022-08-21T09:18:13.938Z,48.03
2022-08-21T09:19:13.927Z,47.56
2022-08-21T09:20:13.915Z,47.75
2022-08-21T09:21:13.906Z,47.75
2022-08-21T09:22:13.894Z,47.75
2022-08-21T09:23:13.883Z,47.85
2022-08-21T09:24:13.874Z,47.97
2022-08-21T09:25:13.864Z,47.97
2022-08-21T09:26:13.853Z,47.87
2022-08-21T09:27:13.842Z,47.75
2022-08-21T09:28:13.832Z,47.85
2022-08-21T09:29:13.824Z,47.97
2022-08-21T09:30:13.810Z,47.87
2022-08-21T09:31:13.801Z,47.97
2022-08-21T09:32:18.461Z,47.85
2022-08-21T09:33:13.788Z,47.94
2022-08-21T09:34:13.767Z,47.85
2022-08-21T09:35:13.758Z,47.85
2022-08-21T09:36:13.747Z,48.23
2022-08-21T09:37:13.737Z,47.75
2022-08-21T09:38:13.724Z,47.75
2022-08-21T09:39:13.713Z,48.13
2022-08-21T09:40:13.738Z,47.94
2022-08-21T09:41:13.693Z,47.85
2022-08-21T09:42:13.683Z,47.85
2022-08-21T09:43:13.671Z,47.75
2022-08-21T09:44:13.662Z,47.87
2022-08-21T09:45:13.650Z,47.85
2022-08-21T09:46:13.642Z,47.85
2022-08-21T09:47:13.633Z,47.97
2022-08-21T09:48:13.620Z,47.94
2022-08-21T09:49:14.962Z,47.85
2022-08-21T09:50:13.603Z,47.85
2022-08-21T09:51:13.588Z,47.75
2022-08-21T09:52:13.578Z,47.94
2022-08-21T09:53:13.567Z,47.85
2022-08-21T09:54:13.559Z,47.94
2022-08-21T09:55:13.566Z,47.77
2022-08-21T09:56:13.536Z,47.75
2022-08-21T09:57:13.524Z,47.56
2022-08-21T09:58:13.516Z,47.94
2022-08-21T09:59:13.503Z,47.94
2022-08-21T10:00:13.492Z,47.75
2022-08-21T10:01:13.558Z,47.85
2022-08-21T10:02:13.475Z,47.85
2022-08-21T10:03:13.460Z,47.94
2022-08-21T10:04:13.457Z,47.94
2022-08-21T10:05:13.442Z,47.85
2022-08-21T10:06:13.431Z,48.16
2022-08-21T10:07:13.417Z,47.75
2022-08-21T10:08:13.408Z,47.75
2022-08-21T10:09:18.733Z,47.97
2022-08-21T10:10:13.387Z,47.75
2022-08-21T10:11:13.374Z,47.65
2022-08-21T10:12:13.364Z,47.94
2022-08-21T10:13:13.355Z,47.75
2022-08-21T10:14:13.343Z,48.23
2022-08-21T10:15:13.333Z,47.75
2022-08-21T10:16:13.323Z,47.75
2022-08-21T10:17:13.312Z,47.85
2022-08-21T10:18:13.301Z,47.65
2022-08-21T10:19:13.290Z,47.65
2022-08-21T10:20:13.281Z,48.03
2022-08-21T10:21:13.269Z,47.94
2022-08-21T10:22:13.259Z,47.56
2022-08-21T10:23:13.247Z,47.75
2022-08-21T10:24:30.400Z,47.94
2022-08-21T10:25:13.227Z,47.65
2022-08-21T10:26:14.555Z,47.75
2022-08-21T10:27:13.204Z,47.65
2022-08-21T10:28:14.076Z,48.13
2022-08-21T10:29:13.186Z,47.75
2022-08-21T10:30:13.205Z,47.65
2022-08-21T10:31:13.163Z,47.65
2022-08-21T10:32:17.316Z,48.23
2022-08-21T10:33:13.141Z,48.13
2022-08-21T10:34:13.131Z,47.75
2022-08-21T10:35:13.121Z,47.65
2022-08-21T10:36:13.111Z,47.94
2022-08-21T10:37:13.103Z,48.23
2022-08-21T10:38:28.215Z,47.85
2022-08-21T10:39:26.605Z,47.75
2022-08-21T10:40:13.163Z,47.75
2022-08-21T10:41:13.060Z,47.65
2022-08-21T10:42:13.047Z,47.85
2022-08-21T10:43:13.037Z,47.56
2022-08-21T10:44:13.025Z,47.65
2022-08-21T10:45:13.015Z,48.23
2022-08-21T10:46:13.004Z,47.75
2022-08-21T10:47:12.993Z,47.65
2022-08-21T10:48:12.984Z,47.56
2022-08-21T10:49:12.973Z,48.33
2022-08-21T10:50:13.069Z,47.65
2022-08-21T10:51:12.953Z,48.33
2022-08-21T10:52:12.948Z,47.65
2022-08-21T10:53:12.930Z,47.85
2022-08-21T10:54:12.920Z,47.75
2022-08-21T10:55:12.908Z,47.85
2022-08-21T10:56:12.898Z,48.23
2022-08-21T10:57:12.887Z,47.65
2022-08-21T10:58:12.879Z,47.85
2022-08-21T10:59:12.868Z,47.75
2022-08-21T11:00:12.902Z,47.85
2022-08-21T11:01:12.908Z,47.75
2022-08-21T11:02:12.841Z,47.75
2022-08-21T11:03:12.825Z,48.13
2022-08-21T11:04:12.815Z,48.23
2022-08-21T11:05:12.807Z,48.03
2022-08-21T11:06:12.807Z,48.23
2022-08-21T11:07:17.592Z,48.43
2022-08-21T11:08:12.779Z,48.03
2022-08-21T11:09:12.764Z,48.33
2022-08-21T11:10:12.753Z,48.23
2022-08-21T11:11:12.740Z,48.13
2022-08-21T11:12:12.744Z,48.43
2022-08-21T11:13:12.720Z,48.23
2022-08-21T11:14:12.707Z,48.23
2022-08-21T11:15:25.108Z,48.03
2022-08-21T11:16:12.686Z,48.03
2022-08-21T11:17:12.677Z,48.13
2022-08-21T11:18:12.665Z,48.03
2022-08-21T11:19:12.654Z,48.03
2022-08-21T11:20:12.642Z,48.13
2022-08-21T11:21:12.632Z,47.94
2022-08-21T11:22:12.623Z,48.03
2022-08-21T11:23:12.611Z,48.03
2022-08-21T11:24:12.600Z,48.23
2022-08-21T11:25:12.593Z,48.03
2022-08-21T11:26:12.581Z,48.13
2022-08-21T11:27:12.569Z,48.03
2022-08-21T11:28:14.632Z,48.03
2022-08-21T11:29:12.548Z,47.94
2022-08-21T11:30:12.537Z,48.03
2022-08-21T11:31:12.526Z,48.13
2022-08-21T11:32:12.526Z,47.94
2022-08-21T11:33:12.504Z,48.03
2022-08-21T11:34:12.496Z,48.03
2022-08-21T11:35:12.485Z,48.23
2022-08-21T11:36:12.474Z,48.03
2022-08-21T11:37:12.463Z,48.13
2022-08-21T11:38:12.453Z,47.94
2022-08-21T11:39:12.443Z,48.13
2022-08-21T11:40:12.487Z,48.13
2022-08-21T11:41:12.421Z,47.94
2022-08-21T11:42:12.411Z,47.94
2022-08-21T11:43:12.399Z,48.23
2022-08-21T11:44:12.388Z,48.03
2022-08-21T11:45:12.379Z,47.94
2022-08-21T11:46:12.370Z,47.94
2022-08-21T11:47:12.360Z,48.03
2022-08-21T11:48:12.347Z,47.94
2022-08-21T11:49:12.338Z,48.23
2022-08-21T11:50:34.258Z,48.13
2022-08-21T11:51:12.319Z,48.03
2022-08-21T11:52:12.303Z,47.94
2022-08-21T11:53:12.294Z,48.13
2022-08-21T11:54:12.282Z,48.13
2022-08-21T11:55:12.272Z,47.94
2022-08-21T11:56:12.262Z,48.13
2022-08-21T11:57:12.253Z,48.13
2022-08-21T11:58:12.239Z,47.94
2022-08-21T11:59:12.229Z,48.13
2022-08-21T12:00:12.219Z,48.03
2022-08-21T12:01:12.211Z,48.13
2022-08-21T12:02:12.234Z,47.94
2022-08-21T12:03:12.187Z,48.13
2022-08-21T12:04:12.176Z,48.13
2022-08-21T12:05:12.177Z,48.13
2022-08-21T12:06:12.157Z,48.13
2022-08-21T12:07:12.146Z,48.23
2022-08-21T12:08:12.136Z,47.94
2022-08-21T12:09:12.123Z,48.13
2022-08-21T12:10:12.113Z,47.94
2022-08-21T12:11:12.102Z,48.13
2022-08-21T12:12:12.092Z,47.94
2022-08-21T12:13:12.081Z,48.13
2022-08-21T12:14:12.070Z,47.94
2022-08-21T12:15:12.061Z,48.13
2022-08-21T12:16:12.047Z,48.13
2022-08-21T12:17:12.533Z,48.23
2022-08-21T12:18:12.028Z,47.94
2022-08-21T12:19:12.017Z,48.13
2022-08-21T12:20:12.007Z,48.13
2022-08-21T12:21:11.996Z,48.23
2022-08-21T12:22:11.986Z,48.03
2022-08-21T12:23:13.082Z,48.13
2022-08-21T12:24:11.964Z,47.94
2022-08-21T12:25:11.952Z,47.94
2022-08-21T12:26:11.941Z,48.43
2022-08-21T12:27:11.932Z,47.94
2022-08-21T12:28:11.921Z,48.03
2022-08-21T12:29:11.914Z,48.13
2022-08-21T12:30:11.901Z,48.03
2022-08-21T12:31:11.888Z,47.94
2022-08-21T12:32:11.877Z,48.03
2022-08-21T12:33:11.868Z,47.94
2022-08-21T12:34:11.858Z,48.03
2022-08-21T12:35:18.598Z,48.23
2022-08-21T12:36:11.838Z,47.94
2022-08-21T12:37:11.827Z,47.94
2022-08-21T12:38:11.818Z,48.03
2022-08-21T12:39:11.803Z,47.94
2022-08-21T12:40:11.870Z,47.94
2022-08-21T12:41:11.782Z,48.13
2022-08-21T12:42:11.773Z,47.94
2022-08-21T12:43:11.760Z,48.13
2022-08-21T12:44:11.751Z,47.94
2022-08-21T12:45:11.739Z,48.03
2022-08-21T12:46:11.736Z,48.13
2022-08-21T12:47:11.723Z,47.94
2022-08-21T12:48:11.707Z,48.13
2022-08-21T12:49:11.697Z,47.94
2022-08-21T12:50:11.686Z,47.94
2022-08-21T12:51:11.676Z,47.94
2022-08-21T12:52:11.664Z,48.23